Time;durP1;ratioP1;P1;durP2;ratioP2;P2;SDS_P1;SDS_P2;PMS_P1;PMS_P2;Temp;Humidity;BMP_temperature;BMP_pressure;BME280_temperature;BME280_humidity;BME280_pressure;Samples;Min_cycle;Max_cycle;Signal;HPM_P1;HPM_P2
2023/11/06 00:02:19;;;;;;;7.53;1.63;;;;;;;-144.05;72.16;56980.53;5013620;28;20034;-77
2023/11/06 00:04:45;;;;;;;7.28;1.30;;;;;;;-144.05;72.24;56959.28;5013333;28;20034;-79
2023/11/06 00:07:12;;;;;;;8.13;1.48;;;;;;;-144.05;72.09;56999.63;5013959;28;20401;-78
2023/11/06 00:09:39;;;;;;;4.28;1.00;;;;;;;-144.05;71.70;56976.28;4995637;28;20049;-80
2023/11/06 00:12:06;;;;;;;6.55;1.33;;;;;;;-144.05;71.89;56993.25;5013409;28;20030;-79
2023/11/06 00:14:32;;;;;;;4.60;1.42;;;;;;;-144.05;71.87;56989.00;5013139;28;20030;-79
2023/11/06 00:16:58;;;;;;;7.45;1.50;;;;;;;-144.05;71.86;56938.03;5013452;28;20030;-78
2023/11/06 00:19:25;;;;;;;5.22;1.13;;;;;;;-144.05;71.44;56982.66;5012945;28;20021;-78
2023/11/06 00:21:51;;;;;;;5.38;1.45;;;;;;;-144.05;71.31;56965.66;4995431;28;20030;-78
2023/11/06 00:24:17;;;;;;;5.57;1.45;;;;;;;-144.05;71.14;56969.91;5014120;28;20368;-79
2023/11/06 00:26:45;;;;;;;5.40;1.20;;;10.30;99.90;;;-144.05;70.95;56952.91;4996350;28;20060;-78
2023/11/06 00:29:12;;;;;;;4.93;1.23;;;;;;;-144.05;70.86;57020.88;5014270;28;20030;-77
2023/11/06 00:31:40;;;;;;;5.55;1.20;;;10.70;99.90;;;-144.05;70.88;56989.00;5014235;28;20094;-79
2023/11/06 00:34:06;;;;;;;7.97;1.60;;;;;;;-144.05;70.98;56997.50;5013818;28;20076;-80
2023/11/06 00:36:33;;;;;;;8.68;1.80;;;;;;;-144.05;71.05;56986.91;5013928;28;20033;-79
2023/11/06 00:38:59;;;;;;;8.32;1.67;;;;;;;-144.05;71.42;57003.88;5013283;28;20100;-78
2023/11/06 00:41:26;;;;;;;7.18;1.30;;;;;;;-144.05;72.34;57003.88;5012941;28;20036;-80
2023/11/06 00:43:52;;;;;;;4.20;1.30;;;;;;;-144.05;73.29;56986.91;5012666;28;20022;-81
2023/11/06 00:46:18;;;;;;;4.35;1.33;;;;;;;-144.05;74.33;56986.91;4995209;28;20033;-79
2023/11/06 00:48:44;;;;;;;6.18;1.40;;;;;;;-144.05;74.41;56989.00;5012589;28;20061;-79
2023/11/06 00:51:11;;;;;;;4.78;1.17;;;;;;;-144.05;74.48;57001.75;5012681;28;20026;-79
2023/11/06 00:53:38;;;;;;;6.75;1.85;;;;;;;-144.05;73.96;57020.88;5012462;28;20038;-78
2023/11/06 00:56:05;;;;;;;10.38;2.00;;;;;;;-144.05;73.86;56976.28;4995068;28;20030;-79
2023/11/06 00:58:32;;;;;;;7.05;1.00;;;;;;;-144.05;73.62;56993.25;5012440;28;20113;-79
2023/11/06 01:00:58;;;;;;;8.15;1.95;;;;;;;-144.05;73.55;56976.28;5012561;28;20026;-79
2023/11/06 01:03:24;;;;;;;8.98;1.40;;;;;;;-144.05;73.14;56976.28;5012235;28;20030;-77
2023/11/06 01:05:50;;;;;;;5.10;1.15;;;;;;;-144.05;73.09;57001.75;5012083;28;20030;-78
2023/11/06 01:08:16;;;;;;;5.68;1.02;;;;;;;-144.05;72.81;56997.50;5012307;28;20056;-80
2023/11/06 01:10:43;;;;;;;7.32;1.45;;;;;;;-144.05;72.20;56955.03;5012356;28;20022;-79
2023/11/06 01:13:09;;;;;;;7.00;1.10;;;;;;;-144.05;72.51;56995.38;5012000;28;20038;-77
2023/11/06 01:15:35;;;;;;;5.97;1.45;;;;;;;-144.05;72.14;56984.78;5012235;28;20105;-80
2023/11/06 01:18:03;;;;;;;6.18;1.42;;;;;;;-144.05;71.92;56965.66;5012438;28;20419;-79
2023/11/06 01:20:29;;;;;;;7.45;1.58;;;;;;;-144.05;71.75;56984.78;4994833;28;20059;-79
2023/11/06 01:22:55;;;;;;;4.70;1.10;;;;;;;-144.05;71.96;56978.41;5012223;28;20034;-79
2023/11/06 01:25:22;;;;;;;8.27;1.90;;;;;;;-144.05;71.74;56993.25;5012632;28;20033;-78
2023/11/06 01:27:48;;;;;;;7.55;1.13;;;;;;;-144.05;71.85;56976.28;5012715;28;20030;-78
2023/11/06 01:30:14;;;;;;;5.70;1.17;;;;;;;-144.05;71.50;56991.13;5012118;28;20069;-79
2023/11/06 01:32:41;;;;;;;4.75;1.23;;;;;;;-144.05;71.17;56993.25;5011445;28;20108;-77
2023/11/06 01:35:07;;;;;;;8.07;1.45;;;;;;;-144.05;71.37;56991.13;5012086;28;20456;-79
2023/11/06 01:37:33;;;;;;;3.97;1.30;;;;;;;-144.05;72.18;56978.41;4997461;28;20034;-80
2023/11/06 01:40:00;;;;;;;8.23;1.00;;;;;;;-144.05;72.87;56984.78;4995824;28;20037;-79
2023/11/06 01:42:26;;;;;;;6.63;1.17;;;;;;;-144.05;73.49;56972.03;5012072;28;20112;-80
2023/11/06 01:44:53;;;;;;;3.70;1.00;;;;;;;-144.05;73.51;57003.88;5011863;28;20065;-79
2023/11/06 01:47:19;;;;;;;5.70;1.48;;;;;;;-144.05;74.38;56986.91;5012390;28;20036;-81
2023/11/06 01:49:46;;;;;;;5.28;1.02;;;;;;;-144.05;74.78;56980.53;5012566;28;20075;-82
2023/11/06 01:52:20;;;;;;;2.67;0.80;;;10.20;99.90;;;-144.05;75.82;56997.50;5012199;28;20025;-82
2023/11/06 01:54:48;;;;;;;3.83;1.17;;;;;;;-144.05;76.40;56986.91;4986469;28;20030;-82
2023/11/06 01:57:19;;;;;;;8.00;1.08;;;10.70;99.90;;;-144.05;76.36;56929.53;5011834;28;20029;-79
2023/11/06 01:59:46;;;;;;;4.53;1.50;;;;;;;-144.05;76.47;56984.78;4990634;28;20492;-81
2023/11/06 02:02:14;;;;;;;6.03;1.00;;;;;;;-144.05;76.22;56974.16;5007326;28;20034;-81
2023/11/06 02:04:47;;;;;;;8.35;1.17;;;9.70;99.90;;;-144.05;76.06;56986.91;5011299;28;20029;-81
2023/11/06 02:07:14;;;;;;;3.58;1.08;;;;;;;-144.05;76.07;56991.13;5011534;28;20514;-81
2023/11/06 02:09:40;;;;;;;3.90;0.98;;;;;;;-144.05;76.22;57006.00;5011267;28;20144;-79
2023/11/06 02:12:08;;;;;;;6.90;1.13;;;;;;;-144.05;76.05;56976.28;5011295;28;20034;-80
2023/11/06 02:14:52;;;;;;;10.20;1.67;;;;;;;-144.05;75.95;56984.78;5010832;28;20061;-81
2023/11/06 02:17:19;;;;;;;7.32;1.67;;;;;;;-144.05;75.57;56959.28;4993823;28;20034;-81
2023/11/06 02:19:46;;;;;;;8.52;1.30;;;;;;;-144.05;75.24;56972.03;4994056;28;20026;-80
2023/11/06 02:22:20;;;;;;;4.47;1.13;;;9.90;99.90;;;-144.05;74.92;56976.28;5011999;28;20029;-79
2023/11/06 02:24:48;;;;;;;8.43;1.48;;;;;;;-144.05;75.25;56991.13;4993749;28;20376;-81
2023/11/06 02:27:18;;;;;;;6.70;1.88;;;;;;;-144.05;74.68;56957.16;4993719;28;20022;-81
2023/11/06 02:29:46;;;;;;;6.22;1.35;;;9.50;99.90;;;-144.05;75.42;56952.91;4993537;28;20030;-82
2023/11/06 02:32:12;;;;;;;7.30;1.02;;;;;;;-144.05;74.98;56993.25;5011941;28;20380;-80
2023/11/06 02:34:41;;;;;;;6.40;1.08;;;;;;;-144.05;75.15;56980.53;5011337;28;20113;-81
2023/11/06 02:37:08;;;;;;;6.25;1.48;;;;;;;-144.05;74.83;56995.38;5011861;28;20118;-81
2023/11/06 02:39:35;;;;;;;3.90;1.00;;;;;;;-144.05;75.21;57018.75;5011584;28;20037;-80
2023/11/06 02:42:05;;;;;;;5.97;1.10;;;10.10;99.90;;;-144.05;75.75;57006.00;5012042;28;20067;-80
2023/11/06 02:44:32;;;;;;;5.35;1.00;;;;;;;-144.05;75.95;56974.16;5014693;28;20150;-80
2023/11/06 02:46:58;;;;;;;6.75;1.13;;;;;;;-144.05;75.85;56955.03;5015823;28;20105;-80
2023/11/06 02:49:24;;;;;;;10.07;1.30;;;10.30;99.90;;;-144.05;76.42;56959.28;5015724;28;20349;-78
2023/11/06 02:51:52;;;;;;;7.57;1.00;;;10.40;99.90;;;-144.05;76.66;56997.50;5015776;28;20129;-79
2023/11/06 02:54:25;;;;;;;3.88;1.00;;;9.90;99.90;;;-144.05;76.85;56986.91;5016044;28;20037;-79
2023/11/06 02:56:52;;;;;;;5.50;1.42;;;;;;;-144.05;77.09;56980.53;5015798;28;20022;-79
2023/11/06 02:59:21;;;;;;;7.03;1.40;;;9.90;99.90;;;-144.05;76.79;56955.03;5015939;28;20105;-80
2023/11/06 03:01:48;;;;;;;10.57;1.40;;;;;;;-144.05;76.52;56982.66;5015849;28;20054;-80
2023/11/06 03:04:14;;;;;;;3.13;1.10;;;;;;;-144.05;76.54;56993.25;5016434;28;20049;-82
2023/11/06 03:06:41;;;;;;;4.40;1.10;;;;;;;-144.05;77.19;56995.38;5016066;28;20029;-79
2023/11/06 03:09:09;;;;;;;6.28;1.20;;;9.90;99.90;;;-144.05;76.91;56989.00;5015712;28;20479;-78
2023/11/06 03:11:38;;;;;;;3.50;1.02;;;;;;;-144.05;76.34;57010.25;5015948;28;20080;-80
2023/11/06 03:14:05;;;;;;;5.68;1.25;;;;;;;-144.05;76.30;56980.53;5016088;28;20037;-81
2023/11/06 03:16:38;;;;;;;2.97;0.90;;;9.90;99.90;;;-144.05;75.46;56980.53;5016074;28;20097;-79
2023/11/06 03:19:05;;;;;;;4.43;1.52;;;;;;;-144.05;75.80;56993.25;5015994;28;20344;-77
2023/11/06 03:21:31;;;;;;;5.10;1.10;;;;;;;-144.05;75.26;56982.66;5015969;28;20121;-80
2023/11/06 03:23:58;;;;;;;4.43;1.00;;;;;;;-144.05;74.74;56991.13;5016479;28;20375;-81
2023/11/06 03:26:24;;;;;;;5.70;1.45;;;;;;;-144.05;74.84;57010.25;5016422;28;20026;-81
2023/11/06 03:28:50;;;;;;;6.00;1.15;;;;;;;-144.05;74.27;56980.53;4999648;28;20097;-82
2023/11/06 03:31:17;;;;;;;5.07;1.00;;;;;;;-144.05;73.92;56978.41;5000824;28;20051;-79
2023/11/06 03:33:43;;;;;;;4.13;0.95;;;;;;;-144.05;74.31;57001.75;5023949;28;20026;-82
2023/11/06 03:36:10;;;;;;;4.53;1.08;;;;;;;-144.05;73.79;56993.25;5011233;28;20061;-80
2023/11/06 03:38:36;;;;;;;2.08;0.63;;;;;;;-144.05;73.87;56995.38;5028365;28;20098;-78
2023/11/06 03:41:03;;;;;;;3.97;0.80;;;;;;;-144.05;73.67;56997.50;5026566;28;20029;-80
2023/11/06 03:43:31;;;;;;;5.72;0.90;;;;;;;-144.05;73.10;56980.53;5014782;28;20131;-79
2023/11/06 03:45:58;;;;;;;2.60;1.08;;;;;;;-144.05;72.77;56980.53;4996401;28;20040;-79
2023/11/06 03:48:24;;;;;;;2.80;0.93;;;;;;;-144.05;72.90;56991.13;4999410;28;20030;-79
2023/11/06 03:50:50;;;;;;;5.15;0.98;;;;;;;-144.05;72.73;56980.53;5013856;28;20122;-78
2023/11/06 03:53:16;;;;;;;5.45;1.55;;;;;;;-144.05;72.66;56997.50;5013904;28;20109;-79
2023/11/06 03:55:43;;;;;;;4.72;0.93;;;;;;;-144.05;72.44;56982.66;5012845;28;20462;-79
2023/11/06 03:58:09;;;;;;;2.17;0.80;;;;;;;-144.05;72.26;56976.28;5013703;28;20034;-79
2023/11/06 04:00:35;;;;;;;3.92;1.08;;;;;;;-144.05;72.54;56989.00;5013643;28;20021;-78
2023/11/06 04:03:01;;;;;;;2.88;0.80;;;;;;;-144.05;72.25;57001.75;5013440;28;20026;-77
2023/11/06 04:05:28;;;;;;;4.55;0.90;;;;;;;-144.05;72.06;56997.50;5013561;28;20029;-78
2023/11/06 04:07:55;;;;;;;5.63;1.10;;;;;;;-144.05;72.17;56984.78;5013716;28;20034;-80
2023/11/06 04:10:21;;;;;;;7.25;1.50;;;;;;;-144.05;71.98;56961.41;5013363;28;20034;-77
2023/11/06 04:12:47;;;;;;;7.00;1.30;;;;;;;-144.05;71.97;56978.41;5013283;28;20030;-79
2023/11/06 04:15:13;;;;;;;3.95;0.80;;;;;;;-144.05;72.33;56944.41;5013257;28;20030;-78
2023/11/06 04:17:39;;;;;;;4.63;0.95;;;;;;;-144.05;72.21;56989.00;5013231;28;20073;-78
2023/11/06 04:20:08;;;;;;;3.58;1.20;;;10.30;99.90;;;-144.05;72.38;56974.16;5013776;28;20569;-79
2023/11/06 04:22:34;;;;;;;3.80;1.13;;;;;;;-144.05;71.55;57006.00;5013202;28;20442;-76
2023/11/06 04:25:02;;;;;;;4.20;1.20;;;;;;;-144.05;72.12;56984.78;4995629;28;20037;-79
2023/11/06 04:27:29;;;;;;;6.28;1.10;;;;;;;-144.05;72.29;56980.53;4995429;28;20116;-79
2023/11/06 04:29:55;;;;;;;7.90;1.10;;;;;;;-144.05;71.75;56976.28;4996110;28;20060;-78
2023/11/06 04:32:21;;;;;;;3.72;1.27;;;;;;;-144.05;72.04;57001.75;5015060;28;20551;-78
2023/11/06 04:34:47;;;;;;;5.45;1.00;;;;;;;-144.05;72.09;57001.75;5015247;28;20042;-80
2023/11/06 04:37:13;;;;;;;6.35;1.50;;;;;;;-144.05;72.11;56999.63;5015710;28;20072;-78
2023/11/06 04:39:40;;;;;;;3.67;1.23;;;10.20;99.90;;;-144.05;71.79;56984.78;5013112;28;20049;-78
2023/11/06 04:42:10;;;;;;;6.13;1.25;;;10.20;99.90;;;-144.05;72.17;56967.78;5013435;28;20033;-79
2023/11/06 04:44:37;;;;;;;3.97;1.52;;;;;;;-144.05;71.58;56989.00;5012752;28;20503;-77
2023/11/06 04:47:04;;;;;;;7.03;1.75;;;;;;;-144.05;71.60;56980.53;5013276;28;20519;-77
2023/11/06 04:49:30;;;;;;;5.82;1.10;;;;;;;-144.05;71.79;56961.41;5012915;28;20534;-79
2023/11/06 04:51:57;;;;;;;3.75;1.27;;;;;;;-144.05;72.28;57027.25;5012979;28;20391;-81
2023/11/06 04:54:23;;;;;;;5.55;1.27;;;;;;;-144.05;72.29;56972.03;5012934;28;20030;-75
2023/11/06 04:56:49;;;;;;;5.03;1.02;;;;;;;-144.05;71.45;56967.78;5013297;28;20025;-75
2023/11/06 04:59:16;;;;;;;6.63;1.33;;;;;;;-144.05;71.90;56980.53;5014133;28;20496;-76
2023/11/06 05:01:43;;;;;;;8.07;1.05;;;;;;;-144.05;72.15;56995.38;5013205;28;20483;-78
2023/11/06 05:04:09;;;;;;;10.40;2.25;;;;;;;-144.05;71.87;56995.38;5012477;28;20037;-81
2023/11/06 05:06:35;;;;;;;4.20;1.10;;;;;;;-144.05;71.43;57010.25;5012369;28;20030;-79
2023/11/06 05:09:02;;;;;;;6.88;1.10;;;;;;;-144.05;71.79;56991.13;5012215;28;20526;-78
2023/11/06 05:11:28;;;;;;;6.90;0.95;;;;;;;-144.05;72.10;56993.25;5012107;28;20500;-81
2023/11/06 05:13:54;;;;;;;5.63;1.55;;;;;;;-144.05;71.91;56991.13;5012052;28;20060;-79
2023/11/06 05:16:21;;;;;;;2.47;0.80;;;5.00;99.90;;;-144.05;71.54;56967.78;5012128;28;20518;-78
2023/11/06 05:18:47;;;;;;;7.75;1.08;;;;;;;-144.05;71.89;57010.25;5012090;28;20109;-81
2023/11/06 05:21:27;;;;;;;7.95;1.20;;;;;;;-144.05;71.75;57008.13;5012091;28;20092;-81
2023/11/06 05:23:54;;;;;;;3.95;1.25;;;9.70;99.90;;;-144.05;71.65;56989.00;5005336;28;20029;-81
2023/11/06 05:26:24;;;;;;;5.43;1.00;;;;;;;-144.05;72.02;57001.75;5011758;28;20454;-80
2023/11/06 05:28:51;;;;;;;6.65;0.98;;;;;;;-144.05;71.91;56993.25;5011954;28;20045;-78
2023/11/06 05:31:17;;;;;;;7.40;1.10;;;;;;;-144.05;72.00;56974.16;5012144;28;20105;-79
2023/11/06 05:33:43;;;;;;;5.50;1.23;;;;;;;-144.05;71.12;57006.00;5012099;28;20029;-81
2023/11/06 05:36:16;;;;;;;9.77;1.50;;;9.70;99.90;;;-144.05;71.06;56980.53;5011762;28;20045;-80
2023/11/06 05:38:42;;;;;;;8.23;0.88;;;;;;;-144.05;71.07;56999.63;5012346;28;20029;-81
2023/11/06 05:41:12;;;;;;;5.43;0.95;;;9.90;99.90;;;-144.05;71.33;56957.16;5011994;28;20565;-81
2023/11/06 05:43:39;;;;;;;5.88;1.15;;;;;;;-144.05;71.11;56991.13;5011815;28;20088;-81
2023/11/06 05:46:06;;;;;;;3.97;1.20;;;10.00;99.90;;;-144.05;70.74;56995.38;5011990;28;20097;-81
2023/11/06 05:48:33;;;;;;;9.30;1.73;;;10.00;99.90;;;-144.05;70.70;56991.13;5011564;28;20034;-80
2023/11/06 05:51:00;;;;;;;9.30;1.35;;;;;;;-144.05;70.74;56984.78;5011751;28;20372;-79
2023/11/06 05:53:27;;;;;;;5.43;1.05;;;10.20;99.90;;;-144.05;70.61;56980.53;5011499;28;20391;-80
2023/11/06 05:55:54;;;;;;;5.45;1.38;;;;;;;-144.05;70.39;56974.16;5011587;28;20052;-81
2023/11/06 05:58:21;;;;;;;6.43;1.35;;;;;;;-144.05;70.18;57006.00;5011692;28;20057;-82
2023/11/06 06:00:47;;;;;;;8.07;1.33;;;;;;;-144.05;70.96;57016.63;5011862;28;20029;-82
2023/11/06 06:03:15;;;;;;;6.97;1.30;;;;;;;-144.05;70.29;56997.50;5011638;28;20395;-80
2023/11/06 06:05:42;;;;;;;11.65;1.40;;;;;;;-144.05;70.01;57001.75;5011568;28;20473;-80
2023/11/06 06:08:15;;;;;;;7.90;1.45;;;10.60;99.90;;;-144.05;70.54;56974.16;5011577;28;20483;-78
2023/11/06 06:10:41;;;;;;;7.65;1.40;;;;;;;-144.05;70.88;56982.66;5011597;28;20030;-78
2023/11/06 06:13:08;;;;;;;10.57;1.90;;;;;;;-144.05;71.13;56997.50;5011509;28;20428;-80
2023/11/06 06:15:34;;;;;;;5.95;1.25;;;;;;;-144.05;70.93;56999.63;5011758;28;20075;-79
2023/11/06 06:18:01;;;;;;;10.35;1.50;;;;;;;-144.05;71.10;56997.50;4993431;28;20026;-81
2023/11/06 06:20:28;;;;;;;11.75;2.20;;;;;;;-144.05;71.08;57010.25;5011634;28;20092;-81
2023/11/06 06:22:54;;;;;;;9.30;1.58;;;;;;;-144.05;70.97;56995.38;5011545;28;20116;-81
2023/11/06 06:25:20;;;;;;;10.77;1.60;;;;;;;-144.05;70.66;56982.66;5011659;28;20030;-81
2023/11/06 06:27:47;;;;;;;7.78;1.80;;;;;;;-144.05;71.07;56984.78;5012125;28;20025;-82
2023/11/06 06:30:14;;;;;;;12.15;2.17;;;;;;;-144.05;71.34;56976.28;5011394;28;20108;-81
2023/11/06 06:32:42;;;;;;;6.95;1.35;;;10.60;99.90;;;-144.05;71.05;56967.78;5011284;28;20030;-82
2023/11/06 06:35:09;;;;;;;13.13;2.00;;;;;;;-144.05;70.73;56991.13;4994937;28;20453;-80
2023/11/06 06:37:36;;;;;;;7.40;1.70;;;;;;;-144.05;70.41;56963.53;5013015;28;20034;-82
2023/11/06 06:40:06;;;;;;;10.35;2.13;;;7.20;99.90;;;-144.05;70.45;56995.38;5013249;28;20097;-81
2023/11/06 06:42:34;;;;;;;7.15;2.10;;;10.10;99.90;;;-144.05;70.83;56950.78;5013741;28;20030;-79
2023/11/06 06:45:01;;;;;;;14.70;2.15;;;;;;;-144.05;71.02;56984.78;5013218;28;20124;-80
2023/11/06 06:47:27;;;;;;;10.20;1.90;;;;;;;-144.05;70.61;56984.78;5012858;28;20096;-79
2023/11/06 06:49:54;;;;;;;14.25;2.63;;;;;;;-144.05;70.59;56993.25;4995045;28;20739;-80
2023/11/06 06:52:20;;;;;;;9.38;1.85;;;7.40;99.90;;;-144.05;70.48;56982.66;5013278;28;20033;-80
2023/11/06 06:54:46;;;;;;;14.55;2.22;;;8.10;99.90;;;-144.05;70.51;56978.41;5013477;28;20385;-78
2023/11/06 06:57:12;;;;;;;11.80;2.53;;;;;;;-144.05;70.45;56980.53;5013591;28;20513;-80
2023/11/06 06:59:39;;;;;;;16.80;2.35;;;;;;;-144.05;70.20;56982.66;5012957;28;20470;-82
2023/11/06 07:02:05;;;;;;;16.08;1.92;;;;;;;-144.05;70.51;56967.78;5012631;28;20131;-81
2023/11/06 07:04:33;;;;;;;10.35;1.63;;;;;;;-144.05;70.09;56989.00;5012545;28;20473;-80
2023/11/06 07:06:59;;;;;;;13.63;2.42;;;;;;;-144.05;70.36;56997.50;4995690;28;20022;-78
2023/11/06 07:09:31;;;;;;;9.30;2.10;;;;;;;-144.05;70.06;57001.75;5012331;28;20474;-78
2023/11/06 07:11:58;;;;;;;20.50;2.47;;;;;;;-144.05;70.39;56991.13;4995284;28;20120;-82
2023/11/06 07:14:24;;;;;;;13.98;2.03;;;;;;;-144.05;70.50;56993.25;5012695;28;20026;-81
2023/11/06 07:16:52;;;;;;;10.82;2.33;;;;;;;-144.05;70.31;56974.16;4995180;28;20053;-83
2023/11/06 07:19:18;;;;;;;8.85;2.20;;;;;;;-144.05;69.98;56963.53;5013713;28;20029;-79
2023/11/06 07:21:45;;;;;;;12.38;2.50;;;;;;;-144.05;69.80;56967.78;4996091;28;20026;-79
2023/11/06 07:24:11;;;;;;;11.23;2.58;;;;;;;-144.05;70.59;56986.91;5014133;28;20084;-80
2023/11/06 07:26:37;;;;;;;16.20;2.80;;;;;;;-144.05;69.92;56997.50;4995773;28;20034;-81
2023/11/06 07:29:05;;;;;;;10.75;2.00;;;;;;;-144.05;69.14;56995.38;5013190;28;20438;-81
2023/11/06 07:31:31;;;;;;;8.90;1.70;;;;;;;-144.05;68.06;57006.00;5011773;28;20034;-79
2023/11/06 07:33:57;;;;;;;16.80;2.13;;;;;;;-144.05;67.44;56980.53;5017771;28;20105;-81
2023/11/06 07:36:23;;;;;;;14.57;1.90;;;;;;;-144.05;67.13;56986.91;5017117;28;20030;-81
2023/11/06 07:38:50;;;;;;;11.35;2.17;;;;;;;-144.05;66.27;56974.16;5016747;28;20080;-83
2023/11/06 07:41:17;;;;;;;11.10;2.60;;;;;;;-144.05;65.85;56965.66;5017037;28;20054;-78
2023/11/06 07:43:43;;;;;;;8.45;1.92;;;;;;;-144.05;65.95;57008.13;5016777;28;20398;-81
2023/11/06 07:46:18;;;;;;;14.50;2.33;;;11.00;99.90;;;-144.05;65.69;56959.28;5016664;28;20085;-81
2023/11/06 07:48:46;;;;;;;9.02;1.80;;;;;;;-144.05;66.44;56993.25;5016710;28;20030;-82
2023/11/06 07:51:13;;;;;;;14.50;2.22;;;10.90;99.90;;;-144.05;66.86;56993.25;5016937;28;20160;-81
2023/11/06 07:53:40;;;;;;;17.17;1.98;;;;;;;-144.05;67.04;57016.63;5016184;28;20041;-83
2023/11/06 07:56:09;;;;;;;8.93;2.78;;;;;;;-144.05;67.27;56999.63;5016418;28;20030;-84
2023/11/06 07:58:35;;;;;;;20.33;3.00;;;;;;;-144.05;67.54;57001.75;5016820;28;20034;-82
2023/11/06 08:01:02;;;;;;;15.55;2.00;;;;;;;-144.05;67.20;56995.38;5017514;28;20084;-84
2023/11/06 08:03:28;;;;;;;12.05;1.73;;;;;;;-144.05;67.20;57008.13;5017763;28;20064;-82
2023/11/06 08:05:54;;;;;;;10.10;2.42;;;;;;;-144.05;66.97;56980.53;5018162;28;20499;-83
2023/11/06 08:08:21;;;;;;;8.68;2.15;;;;;;;-144.05;66.98;56963.53;5018293;28;20064;-81
2023/11/06 08:10:48;;;;;;;11.85;2.75;;;;;;;-144.05;66.36;56976.28;5017685;28;20026;-83
2023/11/06 08:13:14;;;;;;;14.07;2.33;;;;;;;-144.05;66.48;56989.00;5017173;28;20040;-81
2023/11/06 08:15:40;;;;;;;9.30;2.33;;;;;;;-144.05;66.22;56959.28;5017564;28;20037;-80
2023/11/06 08:18:06;;;;;;;7.75;1.70;;;;;;;-144.05;66.85;56991.13;5000015;28;20034;-81
2023/11/06 08:20:33;;;;;;;10.00;1.95;;;;;;;-144.05;66.30;56993.25;5017082;28;20076;-82
2023/11/06 08:22:59;;;;;;;11.23;1.80;;;;;;;-144.05;66.16;56982.66;5016949;28;20081;-81
2023/11/06 08:25:26;;;;;;;12.80;1.90;;;;;;;-144.05;65.83;57001.75;4999367;28;20633;-81
2023/11/06 08:27:54;;;;;;;10.48;2.60;;;;;;;-144.05;65.27;56989.00;5018106;28;20108;-80
2023/11/06 08:30:20;;;;;;;14.80;2.15;;;;;;;-144.05;64.97;56955.03;5017920;28;20036;-78
2023/11/06 08:32:47;;;;;;;6.57;2.53;;;;;;;-144.05;64.27;56976.28;5017001;28;20034;-80
2023/11/06 08:35:13;;;;;;;9.63;1.70;;;;;;;-144.05;63.47;56993.25;5017849;28;20029;-79
2023/11/06 08:37:39;;;;;;;8.15;1.60;;;;;;;-144.05;63.46;56972.03;5017655;28;20025;-81
2023/11/06 08:40:07;;;;;;;15.15;2.50;;;;;;;-144.05;63.69;57001.75;5016429;28;20046;-80
2023/11/06 08:42:33;;;;;;;7.05;1.80;;;;;;;-144.05;64.30;56984.78;5016098;28;20052;-80
2023/11/06 08:44:59;;;;;;;11.40;1.73;;;;;;;-144.05;63.44;56984.78;4998864;28;20036;-83
2023/11/06 08:47:25;;;;;;;9.95;1.92;;;;;;;-144.05;62.32;56993.25;5016606;28;20088;-80
2023/11/06 08:49:51;;;;;;;13.45;1.60;;;;;;;-144.05;61.89;56955.03;5016642;28;20041;-82
2023/11/06 08:52:17;;;;;;;12.25;2.45;;;7.40;99.90;;;-144.05;60.93;56957.16;4999430;28;20026;-83
2023/11/06 08:54:45;;;;;;;9.30;1.70;;;;;;;-144.05;61.51;56982.66;5016504;28;20454;-82
2023/11/06 08:57:14;;;;;;;13.23;1.33;;;11.20;99.90;;;-144.05;62.09;56989.00;5027653;28;20112;-82
2023/11/06 08:59:41;;;;;;;10.13;1.60;;;;;;;-144.05;62.08;56976.28;5033031;28;20035;-82
2023/11/06 09:02:08;;;;;;;4.80;1.67;;;;;;;-144.05;61.38;56959.28;5032923;28;20036;-84
2023/11/06 09:04:34;;;;;;;10.15;1.90;;;;;;;-144.05;61.30;56984.78;5027246;28;20045;-79
2023/11/06 09:07:05;;;;;;;6.28;1.73;;;11.30;99.90;;;-144.05;61.32;56959.28;5016591;28;20033;-77
2023/11/06 09:09:32;;;;;;;8.40;1.83;;;;;;;-144.05;61.06;56972.03;5014932;28;20395;-80
2023/11/06 09:11:58;;;;;;;14.57;2.00;;;;;;;-144.05;60.67;56978.41;5014792;28;20454;-81
2023/11/06 09:14:24;;;;;;;7.07;1.30;;;;;;;-144.05;60.27;56984.78;5014641;28;20030;-79
2023/11/06 09:16:51;;;;;;;7.80;1.73;;;;;;;-144.05;61.48;56967.78;4997858;28;20034;-77
2023/11/06 09:19:17;;;;;;;11.32;1.90;;;;;;;-144.05;61.67;56976.28;5015527;28;20026;-80
2023/11/06 09:21:43;;;;;;;12.25;1.92;;;;;;;-144.05;61.11;56986.91;4997911;28;20025;-79
2023/11/06 09:24:11;;;;;;;8.05;1.83;;;;;;;-144.05;60.94;56978.41;5015255;28;20065;-80
2023/11/06 09:26:38;;;;;;;14.02;1.73;;;;;;;-144.05;60.38;56976.28;5015294;28;20096;-80
2023/11/06 09:29:06;;;;;;;4.78;1.23;;;;;;;-144.05;60.16;56986.91;5015453;28;20041;-77
2023/11/06 09:31:33;;;;;;;13.93;2.10;;;;;;;-144.05;60.31;56972.03;5015595;28;20033;-80
2023/11/06 09:33:59;;;;;;;10.48;1.50;;;;;;;-144.05;58.97;56976.28;5015467;28;20463;-78
2023/11/06 09:36:25;;;;;;;12.38;2.30;;;;;;;-144.05;59.10;56969.91;5015350;28;20029;-79
2023/11/06 09:38:51;;;;;;;8.98;1.40;;;;;;;-144.05;58.58;56974.16;5015133;28;20077;-79
2023/11/06 09:41:18;;;;;;;7.78;1.50;;;;;;;-144.05;59.17;56989.00;5014504;28;20030;-80
2023/11/06 09:43:45;;;;;;;9.68;1.63;;;;;;;-144.05;57.93;56950.78;5006927;28;20038;-81
2023/11/06 09:46:13;;;;;;;8.90;1.45;;;15.40;99.90;;;-144.05;56.40;57001.75;5015160;28;20033;-80
2023/11/06 09:48:40;;;;;;;11.60;1.38;;;;;;;-144.05;57.18;56967.78;5014611;28;20045;-81
2023/11/06 09:51:15;;;;;;;8.43;1.52;;;15.10;99.90;;;-144.05;57.33;56950.78;5014572;28;20408;-78
2023/11/06 09:53:50;;;;;;;6.45;1.67;;;12.10;99.90;;;-144.05;56.87;56969.91;4995670;28;20566;-79
2023/11/06 09:56:19;;;;;;;7.70;2.10;;;12.00;99.90;;;-144.05;56.74;56950.78;5013615;28;20029;-81
2023/11/06 09:58:45;;;;;;;11.55;1.90;;;;;;;-144.05;56.45;56952.91;5006458;28;20041;-82
2023/11/06 10:01:12;;;;;;;6.80;1.75;;;;;;;-144.05;55.64;56967.78;5015020;28;20053;-78
2023/11/06 10:03:39;;;;;;;7.22;1.38;;;12.50;99.90;;;-144.05;56.35;56972.03;5015680;28;20080;-80
2023/11/06 10:06:07;;;;;;;5.25;1.55;;;8.20;99.90;;;-144.05;55.53;56972.03;4997583;28;20058;-81
2023/11/06 10:08:37;;;;;;;7.53;1.75;;;12.50;99.90;;;-144.05;56.00;56976.28;5015316;28;20058;-79
2023/11/06 10:11:06;;;;;;;6.53;1.55;;;12.80;99.90;;;-144.05;54.84;56978.41;5015302;28;20034;-81
2023/11/06 10:13:48;;;;;;;7.13;1.40;;;9.10;99.90;;;-144.05;54.23;56946.53;5015824;28;20025;-78
2023/11/06 10:16:24;;;;;;;9.07;1.52;;;12.80;99.90;;;-144.05;54.03;56984.78;5015553;28;20095;-79
2023/11/06 10:19:13;;;;;;;7.78;1.60;;;13.20;99.90;;;-144.05;54.01;56946.53;5015583;28;20022;-79
2023/11/06 10:21:41;;;;;;;8.05;1.42;;;9.00;99.90;;;-144.05;52.79;56933.78;5016080;28;20107;-79
2023/11/06 10:24:09;;;;;;;7.43;1.50;;;12.80;99.90;;;-144.05;53.80;56944.41;4997902;28;20356;-79
2023/11/06 10:26:35;;;;;;;9.50;1.67;;;;;;;-144.05;53.99;57027.25;5015280;28;20045;-80
2023/11/06 10:29:14;;;;;;;9.25;1.58;;;15.40;99.90;;;-144.05;55.48;56995.38;5014701;28;20391;-79
2023/11/06 10:31:47;;;;;;;7.40;1.60;;;9.00;99.90;;;-144.05;54.88;56961.41;5014268;28;20313;-76
2023/11/06 10:34:37;;;;;;;9.82;1.60;;;9.00;99.90;;;-144.05;53.94;56955.03;5014254;28;20026;-80
2023/11/06 10:37:10;;;;;;;4.43;1.10;;;15.60;99.90;;;-144.05;53.64;56993.25;5014811;28;20022;-80
2023/11/06 10:39:55;;;;;;;8.38;1.60;;;12.50;99.90;;;-144.05;54.77;56984.78;5014350;28;20058;-78
2023/11/06 10:42:23;;;;;;;13.43;2.43;;;;;;;-144.05;53.88;56942.28;5013539;28;20037;-80
2023/11/06 10:45:00;;;;;;;5.22;1.33;;;12.60;99.90;;;-144.05;53.94;56989.00;5014043;28;20316;-79
2023/11/06 10:47:33;;;;;;;4.15;1.05;;;12.60;99.90;;;-144.05;54.45;56972.03;5014149;28;20026;-80
2023/11/06 10:50:07;;;;;;;9.93;1.60;;;8.60;99.90;;;-144.05;55.21;56982.66;4995315;28;20044;-79
2023/11/06 10:52:34;;;;;;;13.88;2.25;;;8.10;99.90;;;-144.05;54.70;56989.00;5013523;28;20029;-79
2023/11/06 10:55:06;;;;;;;7.05;1.73;;;15.50;99.90;;;-144.05;54.55;56980.53;5014176;28;20128;-80
2023/11/06 10:57:34;;;;;;;12.93;1.92;;;12.60;99.90;;;-144.05;54.42;56974.16;5013620;28;20068;-81
2023/11/06 11:00:07;;;;;;;6.53;1.52;;;12.50;99.90;;;-144.05;54.68;56974.16;5013678;28;20034;-80
2023/11/06 11:02:48;;;;;;;10.45;1.55;;;12.00;99.90;;;-144.05;54.99;56986.91;5013087;28;20095;-80